Time;durP1;ratioP1;P1;durP2;ratioP2;P2;SDS_P1;SDS_P2;PMS_P1;PMS_P2;Temp;Humidity;BMP_temperature;BMP_pressure;BME280_temperature;BME280_humidity;BME280_pressure;Samples;Min_cycle;Max_cycle;Signal;HPM_P1;HPM_P2
2023/02/08 00:01:11;;;;;;;30.90;20.77;;;-2.50;99.90;;;;;;6185177;23;20017;-71
2023/02/08 00:03:37;;;;;;;30.98;20.63;;;-2.60;99.90;;;;;;6187006;23;20013;-71
2023/02/08 00:06:04;;;;;;;28.40;20.52;;;-2.70;99.90;;;;;;6186886;23;20093;-72
2023/02/08 00:08:30;;;;;;;31.27;21.75;;;-2.70;99.90;;;;;;6185270;23;20128;-72
2023/02/08 00:10:56;;;;;;;29.58;21.33;;;-2.70;99.90;;;;;;6185019;23;20020;-72
2023/02/08 00:13:22;;;;;;;31.10;19.80;;;-2.70;99.90;;;;;;6184921;23;20013;-72
2023/02/08 00:15:50;;;;;;;32.72;23.02;;;-2.70;99.90;;;;;;6186768;23;20013;-72
2023/02/08 00:18:16;;;;;;;32.70;21.80;;;-2.60;99.90;;;;;;6186838;23;20375;-72
2023/02/08 00:20:42;;;;;;;36.95;22.42;;;-2.60;99.90;;;;;;6184978;23;20024;-72
2023/02/08 00:23:08;;;;;;;37.58;23.52;;;-2.50;99.90;;;;;;6185035;23;20024;-72
2023/02/08 00:25:34;;;;;;;31.40;22.10;;;-2.40;99.90;;;;;;6186375;23;20013;-72
2023/02/08 00:27:59;;;;;;;33.25;22.35;;;-2.40;99.90;;;;;;6159862;23;20092;-72
2023/02/08 00:30:25;;;;;;;28.65;21.58;;;-2.40;99.90;;;;;;6184922;23;20013;-72
2023/02/08 00:32:51;;;;;;;34.78;22.95;;;-2.40;99.90;;;;;;6186698;23;20382;-72
2023/02/08 00:35:17;;;;;;;33.22;23.10;;;-2.50;99.90;;;;;;6186704;23;20071;-72
2023/02/08 00:37:42;;;;;;;31.40;21.77;;;-2.40;99.90;;;;;;6186798;23;20013;-72
2023/02/08 00:40:08;;;;;;;29.85;19.77;;;-2.50;99.90;;;;;;6184799;23;20051;-72
2023/02/08 00:42:34;;;;;;;27.02;18.80;;;-2.60;99.90;;;;;;6160093;23;20104;-72
2023/02/08 00:45:00;;;;;;;29.65;19.85;;;-2.70;99.90;;;;;;6184749;23;20458;-72
2023/02/08 00:47:25;;;;;;;29.48;19.65;;;-2.70;99.90;;;;;;6186704;23;20009;-72
2023/02/08 00:49:51;;;;;;;30.17;20.83;;;-2.90;99.90;;;;;;6184753;23;20005;-72
2023/02/08 00:52:18;;;;;;;31.67;20.90;;;-2.90;99.90;;;;;;6186507;23;20020;-71
2023/02/08 00:54:43;;;;;;;30.95;20.17;;;-3.00;99.90;;;;;;6186523;23;20016;-72
2023/02/08 00:57:09;;;;;;;29.38;19.13;;;-3.00;99.90;;;;;;6186913;23;20043;-72
2023/02/08 00:59:35;;;;;;;28.40;18.63;;;-3.00;99.90;;;;;;6186513;23;20059;-72
2023/02/08 01:02:00;;;;;;;29.73;19.52;;;-3.10;99.90;;;;;;6186160;23;20454;-72
2023/02/08 01:04:26;;;;;;;28.65;19.38;;;-3.10;99.90;;;;;;6186421;23;20019;-72
2023/02/08 01:06:52;;;;;;;30.50;20.90;;;-3.10;99.90;;;;;;6186624;23;20015;-72
2023/02/08 01:09:17;;;;;;;35.45;21.92;;;-3.10;99.90;;;;;;6184642;23;20009;-72
2023/02/08 01:11:43;;;;;;;31.70;21.48;;;-3.10;99.90;;;;;;6186604;23;20396;-72
2023/02/08 01:14:09;;;;;;;30.95;20.75;;;-3.00;99.90;;;;;;6186653;23;20005;-72
2023/02/08 01:16:34;;;;;;;30.58;20.73;;;-3.00;99.90;;;;;;6187246;23;20017;-72
2023/02/08 01:19:01;;;;;;;27.90;20.73;;;-2.90;99.90;;;;;;6186705;23;20087;-72
2023/02/08 01:21:38;;;;;;;32.88;20.05;;;-2.90;99.90;;;;;;6186567;23;20370;-72
2023/02/08 01:24:05;;;;;;;29.88;20.65;;;-2.90;99.90;;;;;;6186886;23;20005;-72
2023/02/08 01:26:31;;;;;;;29.88;20.10;;;-2.90;99.90;;;;;;6186576;23;20017;-72
2023/02/08 01:28:58;;;;;;;28.40;20.05;;;-3.00;99.90;;;;;;6186040;23;20092;-71
2023/02/08 01:31:27;;;;;;;26.23;17.67;;;-3.00;99.90;;;;;;6186600;23;20079;-71
2023/02/08 01:33:54;;;;;;;29.77;20.58;;;-3.00;99.90;;;;;;6186572;23;20017;-72
2023/02/08 01:36:20;;;;;;;29.40;20.38;;;-3.10;99.90;;;;;;6184595;23;20016;-71
2023/02/08 01:38:46;;;;;;;28.65;20.30;;;-3.10;99.90;;;;;;6186426;23;20013;-71
2023/02/08 01:41:33;;;;;;;32.08;21.10;;;-3.10;99.90;;;;;;6184524;23;20005;-71
2023/02/08 01:44:01;;;;;;;33.85;21.35;;;-3.10;99.90;;;;;;6185254;23;20423;-72
2023/02/08 01:46:29;;;;;;;32.40;22.70;;;-3.10;99.90;;;;;;6185931;23;20096;-72
2023/02/08 01:48:58;;;;;;;30.50;21.60;;;-3.00;99.90;;;;;;6185978;23;20020;-72
2023/02/08 01:51:28;;;;;;;35.25;23.27;;;-3.10;99.90;;;;;;6186321;23;20017;-72
2023/02/08 01:53:55;;;;;;;;;;;-3.10;99.90;;;;;;6185495;23;20017;-72
2023/02/08 01:56:44;;;;;;;36.40;23.25;;;-3.10;99.90;;;;;;6187761;23;19916;-72
2023/02/08 01:59:25;;;;;;;37.08;24.55;;;-3.10;99.90;;;;;;6188064;23;20349;-72
2023/02/08 02:01:55;;;;;;;34.15;23.33;;;-3.10;99.90;;;;;;6186578;23;20055;-72
2023/02/08 02:04:21;;;;;;;30.75;19.70;;;-3.00;99.90;;;;;;6187992;23;20017;-72
2023/02/08 02:06:52;;;;;;;34.70;23.45;;;-3.00;99.90;;;;;;6188035;23;20080;-72
2023/02/08 02:09:46;;;;;;;33.88;21.88;;;-3.00;99.90;;;;;;6188703;23;20009;-72
2023/02/08 02:12:12;;;;;;;38.63;24.25;;;-3.20;99.90;;;;;;6188096;23;20304;-72
2023/02/08 02:14:39;;;;;;;38.70;23.17;;;-3.20;99.90;;;;;;6187992;23;20127;-71
2023/02/08 02:17:05;;;;;;;36.25;23.80;;;-3.20;99.90;;;;;;6188340;23;20117;-72
2023/02/08 02:20:06;;;;;;;31.00;20.92;;;-3.20;99.90;;;;;;6185981;23;20044;-72
2023/02/08 02:22:47;;;;;;;28.40;19.50;;;-3.40;99.90;;;;;;6186246;23;20457;-72
2023/02/08 02:25:54;;;;;;;30.33;21.30;;;-3.40;99.90;;;;;;6187898;23;20009;-72
2023/02/08 02:28:53;;;;;;;33.40;22.55;;;-3.40;99.90;;;;;;6067562;23;20022;-72
2023/02/08 02:31:48;;;;;;;26.55;17.45;;;-3.30;99.90;;;;;;6043857;23;20387;-72
2023/02/08 02:34:57;;;;;;;28.65;19.50;;;-3.10;99.90;;;;;;6043780;23;20025;-72
2023/02/08 02:37:50;;;;;;;27.42;19.17;;;-3.20;99.90;;;;;;6067932;23;20022;-72
2023/02/08 02:40:44;;;;;;;27.08;19.52;;;-3.40;99.90;;;;;;6068069;23;20042;-72
2023/02/08 02:43:43;;;;;;;27.60;20.27;;;-3.50;99.90;;;;;;6043584;23;20098;-72
2023/02/08 02:46:34;;;;;;;30.42;21.73;;;-3.50;99.90;;;;;;6043869;23;20015;-72
2023/02/08 02:49:22;;;;;;;33.97;21.55;;;-3.40;99.90;;;;;;6043633;23;20093;-72
2023/02/08 02:52:00;;;;;;;32.53;21.83;;;-3.30;99.90;;;;;;6067675;23;20050;-72
2023/02/08 02:54:59;;;;;;;38.05;21.35;;;-3.20;99.90;;;;;;6067596;23;20444;-72
2023/02/08 02:57:31;;;;;;;28.63;20.27;;;-3.20;99.90;;;;;;6013202;23;20025;-72
2023/02/08 02:59:58;;;;;;;31.55;20.83;;;-3.20;99.90;;;;;;6043508;23;20019;-72
2023/02/08 03:02:26;;;;;;;30.23;20.77;;;-3.30;99.90;;;;;;6067583;23;20022;-71
2023/02/08 03:04:54;;;;;;;28.27;20.15;;;-3.30;99.90;;;;;;6101608;23;20044;-72
2023/02/08 03:07:20;;;;;;;30.77;20.27;;;-3.40;99.90;;;;;;6161009;23;20434;-72
2023/02/08 03:10:08;;;;;;;32.45;21.75;;;-3.40;99.90;;;;;;6187885;23;20032;-72
2023/02/08 03:12:56;;;;;;;29.42;19.80;;;-3.40;99.90;;;;;;6185717;23;20091;-72
2023/02/08 03:15:46;;;;;;;26.42;18.88;;;-3.40;99.90;;;;;;6188097;23;20370;-72
2023/02/08 03:18:23;;;;;;;20.80;15.70;;;-3.50;99.90;;;;;;6187476;23;20346;-72
2023/02/08 03:20:52;;;;;;;31.50;20.30;;;-3.40;99.90;;;;;;6187408;23;20333;-72
2023/02/08 03:23:27;;;;;;;29.50;19.50;;;-3.50;99.90;;;;;;6187324;23;20303;-72
2023/02/08 03:26:18;;;;;;;29.55;20.25;;;-3.50;99.90;;;;;;6187178;23;20017;-72
2023/02/08 03:29:20;;;;;;;32.17;20.92;;;-3.50;99.90;;;;;;6186786;23;20144;-72
2023/02/08 03:32:01;;;;;;;30.42;20.77;;;-3.40;99.90;;;;;;6187152;23;20039;-72
2023/02/08 03:34:57;;;;;;;28.88;19.88;;;-3.40;99.90;;;;;;6187301;23;20015;-72
2023/02/08 03:37:40;;;;;;;32.22;21.83;;;-3.40;99.90;;;;;;6186966;23;20055;-72
2023/02/08 03:40:15;;;;;;;30.08;19.80;;;-3.40;99.90;;;;;;6185478;23;20009;-72
2023/02/08 03:42:41;;;;;;;35.47;22.10;;;-3.40;99.90;;;;;;6185408;23;20068;-72
2023/02/08 03:45:18;;;;;;;33.25;21.15;;;-3.60;99.90;;;;;;6185131;23;20496;-72
2023/02/08 03:47:46;;;;;;;33.90;21.08;;;-3.50;99.90;;;;;;6185392;23;20435;-72
2023/02/08 03:50:21;;;;;;;31.83;21.10;;;-3.70;99.90;;;;;;6160507;23;20039;-72
2023/02/08 03:52:48;;;;;;;32.08;21.73;;;-3.70;99.90;;;;;;6187295;23;20041;-72
2023/02/08 03:55:23;;;;;;;36.03;21.08;;;-3.70;99.90;;;;;;6185252;23;20040;-72
2023/02/08 03:57:54;;;;;;;32.53;22.08;;;-3.60;99.90;;;;;;6185211;23;20067;-72
2023/02/08 04:00:21;;;;;;;30.48;21.40;;;-3.60;99.90;;;;;;6185211;23;20374;-72
2023/02/08 04:03:00;;;;;;;32.38;22.52;;;-3.50;99.90;;;;;;6185015;23;20426;-72
2023/02/08 04:05:27;;;;;;;32.05;20.35;;;-3.50;99.90;;;;;;6186849;23;20009;-72
2023/02/08 04:07:57;;;;;;;31.63;22.33;;;-3.40;99.90;;;;;;6185230;23;20036;-72
2023/02/08 04:10:23;;;;;;;34.80;23.23;;;-3.50;99.90;;;;;;6185194;23;20009;-72
2023/02/08 04:12:54;;;;;;;31.63;19.90;;;-3.40;99.90;;;;;;6185038;23;20067;-72
2023/02/08 04:15:20;;;;;;;34.90;21.58;;;-3.40;99.90;;;;;;6186950;23;20013;-72
2023/02/08 04:17:46;;;;;;;28.60;20.52;;;-3.50;99.90;;;;;;6185038;23;20047;-72
2023/02/08 04:20:12;;;;;;;30.25;21.08;;;-3.50;99.90;;;;;;6186511;23;20013;-72
2023/02/08 04:22:38;;;;;;;33.03;21.58;;;-3.50;99.90;;;;;;6186627;23;20016;-72
2023/02/08 04:25:04;;;;;;;33.33;21.77;;;-3.60;99.90;;;;;;6186301;23;20017;-72
2023/02/08 04:27:30;;;;;;;32.88;22.33;;;-3.60;99.90;;;;;;6184432;23;20096;-72
2023/02/08 04:29:56;;;;;;;29.23;19.52;;;-3.60;99.90;;;;;;6186771;23;20047;-72
2023/02/08 04:32:22;;;;;;;31.05;20.77;;;-3.70;99.90;;;;;;6186516;23;20438;-72
2023/02/08 04:34:47;;;;;;;31.38;20.05;;;-3.70;99.90;;;;;;6186786;23;20009;-72
2023/02/08 04:37:13;;;;;;;31.30;20.23;;;-3.90;99.90;;;;;;6160367;23;20059;-72
2023/02/08 04:39:38;;;;;;;31.98;20.95;;;-3.90;99.90;;;;;;6186418;23;20013;-72
2023/02/08 04:42:08;;;;;;;34.85;23.75;;;-3.80;99.90;;;;;;6186809;23;20019;-71
2023/02/08 04:44:34;;;;;;;26.33;17.17;;;-3.70;99.90;;;;;;6184932;23;20028;-72
2023/02/08 04:47:15;;;;;;;29.00;19.45;;;-3.60;99.90;;;;;;6186779;23;20005;-72
2023/02/08 04:49:41;;;;;;;29.40;20.08;;;-3.70;99.90;;;;;;6158426;23;20012;-72
2023/02/08 04:52:06;;;;;;;28.05;18.95;;;-3.70;99.90;;;;;;6184865;23;20017;-72
2023/02/08 04:54:32;;;;;;;32.47;21.70;;;-3.80;99.90;;;;;;6184956;23;20017;-72
2023/02/08 04:56:58;;;;;;;35.28;23.35;;;-3.80;99.90;;;;;;6185189;23;20009;-72
2023/02/08 04:59:23;;;;;;;39.40;26.23;;;-3.70;99.90;;;;;;6186448;23;20044;-72
2023/02/08 05:01:49;;;;;;;44.85;27.40;;;-3.50;99.90;;;;;;6184635;23;20067;-72
2023/02/08 05:04:15;;;;;;;43.08;26.35;;;-3.40;99.90;;;;;;6186378;23;20338;-72
2023/02/08 05:06:40;;;;;;;43.95;27.27;;;-3.30;99.90;;;;;;6186450;23;20009;-72
2023/02/08 05:09:07;;;;;;;46.60;28.83;;;-3.10;99.90;;;;;;6186810;23;20422;-72
2023/02/08 05:11:33;;;;;;;45.60;27.83;;;-2.90;99.90;;;;;;6184675;23;20338;-72
2023/02/08 05:13:59;;;;;;;46.95;28.95;;;-2.90;99.90;;;;;;6159881;23;20009;-72
2023/02/08 05:16:25;;;;;;;50.85;30.80;;;-2.70;99.90;;;;;;6186454;23;20016;-72
2023/02/08 05:18:50;;;;;;;44.40;29.00;;;-2.60;99.90;;;;;;6184641;23;20024;-72
2023/02/08 05:21:16;;;;;;;45.30;28.80;;;-2.60;99.90;;;;;;6185005;23;20041;-72
2023/02/08 05:23:42;;;;;;;48.20;29.17;;;-2.40;99.90;;;;;;6184714;23;20013;-72
2023/02/08 05:26:10;;;;;;;40.42;26.58;;;-2.50;99.90;;;;;;6184344;23;20017;-72
2023/02/08 05:28:36;;;;;;;38.03;24.38;;;-2.70;99.90;;;;;;6160566;23;20017;-72
2023/02/08 05:31:20;;;;;;;42.47;26.27;;;-2.80;99.90;;;;;;6188346;23;20013;-72
2023/02/08 05:33:47;;;;;;;36.55;23.40;;;-3.00;99.90;;;;;;6188376;23;20096;-72
2023/02/08 05:36:12;;;;;;;37.40;23.73;;;-3.00;99.90;;;;;;6188311;23;20013;-72
2023/02/08 05:38:38;;;;;;;36.35;23.65;;;-3.20;99.90;;;;;;6186644;23;20043;-72
2023/02/08 05:41:04;;;;;;;38.97;24.98;;;-3.20;99.90;;;;;;6186497;23;20013;-72
2023/02/08 05:43:29;;;;;;;44.53;27.17;;;-3.10;99.90;;;;;;6186401;23;20010;-72
2023/02/08 05:45:55;;;;;;;44.30;28.23;;;-3.00;99.90;;;;;;6186288;23;20021;-72
2023/02/08 05:48:21;;;;;;;41.53;27.45;;;-2.90;99.90;;;;;;6188205;23;20024;-72
2023/02/08 05:50:46;;;;;;;42.13;25.52;;;-2.80;99.90;;;;;;6186410;23;20502;-72
2023/02/08 05:53:12;;;;;;;38.22;24.35;;;-2.80;99.90;;;;;;6186606;23;20013;-72
2023/02/08 05:55:37;;;;;;;37.22;23.60;;;-2.90;99.90;;;;;;6186667;23;20016;-72
2023/02/08 05:58:03;;;;;;;34.72;23.15;;;-3.10;99.90;;;;;;6186316;23;20067;-72
2023/02/08 06:00:29;;;;;;;41.97;26.25;;;-3.20;99.90;;;;;;6186308;23;20040;-72
2023/02/08 06:02:56;;;;;;;36.90;24.90;;;-3.10;99.90;;;;;;6186368;23;20062;-72
2023/02/08 06:05:22;;;;;;;40.58;26.08;;;-3.10;99.90;;;;;;6186123;23;20035;-72
2023/02/08 06:07:47;;;;;;;36.33;22.88;;;-3.20;99.90;;;;;;6186242;23;20040;-72
2023/02/08 06:10:13;;;;;;;40.00;23.15;;;-3.30;99.90;;;;;;6186223;23;20067;-72
2023/02/08 06:12:39;;;;;;;32.30;21.40;;;-3.40;99.90;;;;;;6186597;23;20060;-73
2023/02/08 06:15:05;;;;;;;33.03;21.95;;;-3.60;99.90;;;;;;6188025;23;20469;-73
2023/02/08 06:17:30;;;;;;;41.65;23.90;;;-3.60;99.90;;;;;;6186099;23;20027;-72
2023/02/08 06:19:56;;;;;;;37.78;22.92;;;-3.70;99.90;;;;;;6186227;23;20017;-72
2023/02/08 06:22:22;;;;;;;40.08;23.23;;;-3.70;99.90;;;;;;6188319;23;20013;-72
2023/02/08 06:24:47;;;;;;;38.13;24.73;;;-3.70;99.90;;;;;;6187656;23;20084;-72
2023/02/08 06:27:13;;;;;;;36.45;24.25;;;-3.70;99.90;;;;;;6185911;23;20016;-72
2023/02/08 06:29:39;;;;;;;40.60;24.63;;;-3.60;99.90;;;;;;6186145;23;20009;-72
2023/02/08 06:32:04;;;;;;;35.72;22.90;;;-3.70;99.90;;;;;;6161391;23;20013;-72
2023/02/08 06:34:30;;;;;;;34.55;21.92;;;-3.80;99.90;;;;;;6187988;23;20350;-72
2023/02/08 06:36:58;;;;;;;34.63;23.33;;;-3.80;99.90;;;;;;6186278;23;20389;-72
2023/02/08 06:39:24;;;;;;;38.15;22.98;;;-3.90;99.90;;;;;;6185899;23;20016;-72
2023/02/08 06:41:50;;;;;;;36.17;21.45;;;-4.00;99.90;;;;;;6186464;23;20005;-72
2023/02/08 06:44:16;;;;;;;36.55;23.27;;;-4.00;99.90;;;;;;6187852;23;20016;-73
2023/02/08 06:46:41;;;;;;;40.35;24.25;;;-4.00;99.90;;;;;;6161213;23;20342;-73
2023/02/08 06:49:07;;;;;;;39.25;24.52;;;-3.90;99.90;;;;;;6185913;23;20071;-72
2023/02/08 06:51:32;;;;;;;39.35;24.23;;;-3.80;99.90;;;;;;6185924;23;20088;-72
2023/02/08 06:54:01;;;;;;;35.10;22.48;;;-3.80;99.90;;;;;;6185984;23;20016;-72
2023/02/08 06:56:27;;;;;;;36.97;23.02;;;-3.80;99.90;;;;;;6187319;23;20020;-72
2023/02/08 06:58:52;;;;;;;35.17;22.65;;;-3.80;99.90;;;;;;6185697;23;20013;-72
2023/02/08 07:01:18;;;;;;;38.50;24.77;;;-3.80;99.90;;;;;;6187667;23;20015;-72
2023/02/08 07:03:44;;;;;;;37.35;23.70;;;-3.70;99.90;;;;;;6187660;23;20430;-73
2023/02/08 07:06:15;;;;;;;44.22;25.45;;;-3.70;99.90;;;;;;6187614;23;20326;-72
2023/02/08 07:08:41;;;;;;;40.15;24.60;;;-3.70;99.90;;;;;;6187918;23;20017;-71
2023/02/08 07:11:13;;;;;;;38.22;23.25;;;-3.70;99.90;;;;;;6187619;23;20084;-71
2023/02/08 07:13:39;;;;;;;37.85;24.17;;;-3.70;99.90;;;;;;6162329;23;20013;-72
2023/02/08 07:16:05;;;;;;;38.05;23.67;;;-3.80;99.90;;;;;;6187521;23;20074;-72
2023/02/08 07:18:31;;;;;;;46.40;26.02;;;-3.80;99.90;;;;;;6185693;23;20091;-72
2023/02/08 07:20:57;;;;;;;44.92;27.15;;;-3.90;99.90;;;;;;6185604;23;20446;-72
2023/02/08 07:23:22;;;;;;;48.20;28.23;;;-3.90;99.90;;;;;;6187669;23;20005;-72
2023/02/08 07:25:58;;;;;;;49.63;29.10;;;-3.80;99.90;;;;;;6185310;23;20441;-72
2023/02/08 07:28:24;;;;;;;54.85;32.53;;;-3.70;99.90;;;;;;6185163;23;20021;-72
2023/02/08 07:30:50;;;;;;;63.42;36.45;;;-3.70;99.90;;;;;;6187177;23;20023;-72
2023/02/08 07:33:15;;;;;;;57.78;34.25;;;-3.60;99.90;;;;;;6187358;23;20013;-73
2023/02/08 07:35:41;;;;;;;61.00;35.47;;;-3.50;99.90;;;;;;6187143;23;20052;-74
2023/02/08 07:38:06;;;;;;;53.55;32.95;;;-3.40;99.90;;;;;;6187269;23;20213;-73
2023/02/08 07:40:32;;;;;;;62.95;35.92;;;-3.40;99.90;;;;;;6185314;23;20020;-70
2023/02/08 07:42:58;;;;;;;47.25;28.75;;;-3.40;99.90;;;;;;6185302;23;20095;-72
2023/02/08 07:45:24;;;;;;;55.45;34.38;;;-3.40;99.90;;;;;;6185203;23;20017;-72
2023/02/08 07:47:50;;;;;;;47.42;28.92;;;-3.30;99.90;;;;;;6187116;23;20076;-72
2023/02/08 07:50:15;;;;;;;52.88;33.03;;;-3.20;99.90;;;;;;6187090;23;20438;-72
2023/02/08 07:52:44;;;;;;;60.85;37.28;;;-3.20;99.90;;;;;;6186585;23;20051;-72
2023/02/08 07:55:15;;;;;;;65.63;41.95;;;-3.20;99.90;;;;;;6187117;23;20020;-72
2023/02/08 07:57:46;;;;;;;66.47;43.17;;;-3.10;99.90;;;;;;6187112;23;20019;-71
2023/02/08 08:00:13;;;;;;;63.67;39.70;;;-3.10;99.90;;;;;;6185241;23;20020;-71
2023/02/08 08:02:39;;;;;;;62.58;40.63;;;-3.00;99.90;;;;;;6185179;23;20052;-70
2023/02/08 08:05:06;;;;;;;62.67;41.55;;;-3.00;99.90;;;;;;6160301;23;20013;-70
2023/02/08 08:07:31;;;;;;;65.32;43.95;;;-2.90;99.90;;;;;;6187180;23;20040;-70
2023/02/08 08:09:57;;;;;;;68.50;44.70;;;-2.80;99.90;;;;;;6186948;23;20386;-70
2023/02/08 08:12:26;;;;;;;69.90;46.25;;;-2.70;99.90;;;;;;6185136;23;20013;-69
2023/02/08 08:14:51;;;;;;;64.88;40.58;;;-2.60;99.90;;;;;;6186642;23;20028;-69
2023/02/08 08:17:18;;;;;;;65.88;42.58;;;-2.60;99.90;;;;;;6186934;23;20013;-69
2023/02/08 08:19:44;;;;;;;60.65;36.20;;;-2.50;99.90;;;;;;6186983;23;20080;-70
2023/02/08 08:22:10;;;;;;;56.72;35.80;;;-2.50;99.90;;;;;;6185558;23;20343;-69
2023/02/08 08:24:36;;;;;;;57.33;35.78;;;-2.40;99.90;;;;;;6185035;23;20071;-70
2023/02/08 08:27:05;;;;;;;58.42;35.40;;;-2.30;99.90;;;;;;6159644;23;20401;-70
2023/02/08 08:29:32;;;;;;;54.83;34.03;;;-2.20;99.90;;;;;;6186764;23;20084;-70
2023/02/08 08:31:58;;;;;;;58.40;36.10;;;-2.20;99.90;;;;;;6186596;23;20016;-70
2023/02/08 08:34:28;;;;;;;56.53;33.03;;;-2.00;99.90;;;;;;6184893;23;20017;-70
2023/02/08 08:37:01;;;;;;;;;;;-1.90;99.90;;;;;;6187406;23;20076;-70
2023/02/08 08:39:27;;;;;;;54.63;31.67;;;-1.90;99.90;;;;;;6184874;23;19919;-69
2023/02/08 08:41:56;;;;;;;54.17;32.13;;;-1.80;99.90;;;;;;6187080;23;20013;-69
2023/02/08 08:44:22;;;;;;;56.20;32.25;;;-1.80;99.90;;;;;;6184832;23;20013;-69
2023/02/08 08:46:47;;;;;;;53.65;31.38;;;-1.70;99.90;;;;;;6185303;23;20085;-70
2023/02/08 08:49:13;;;;;;;55.33;32.67;;;-1.50;99.90;;;;;;6184853;23;20375;-69
2023/02/08 08:51:39;;;;;;;53.47;31.95;;;-1.40;99.90;;;;;;6186544;23;20395;-70
2023/02/08 08:54:05;;;;;;;53.67;31.38;;;-1.30;99.90;;;;;;6184800;23;20434;-69
2023/02/08 08:56:31;;;;;;;50.13;32.10;;;-1.10;99.90;;;;;;6184690;23;20020;-72
2023/02/08 08:58:57;;;;;;;51.83;32.33;;;-1.00;99.90;;;;;;6184665;23;20020;-69
2023/02/08 09:01:23;;;;;;;55.67;32.25;;;-0.90;99.90;;;;;;6184617;23;20021;-70
2023/02/08 09:03:49;;;;;;;52.88;31.23;;;-0.80;99.90;;;;;;6186386;23;20016;-71
2023/02/08 09:06:15;;;;;;;53.53;31.67;;;-0.70;99.90;;;;;;6184578;23;20346;-69
2023/02/08 09:08:40;;;;;;;51.15;32.28;;;-0.60;99.90;;;;;;6186594;23;20104;-70
2023/02/08 09:11:09;;;;;;;53.20;31.98;;;-0.50;99.90;;;;;;6186588;23;20013;-70
2023/02/08 09:13:35;;;;;;;52.08;31.02;;;-0.40;99.90;;;;;;6184627;23;20446;-70
2023/02/08 09:16:13;;;;;;;49.17;29.45;;;-0.40;99.90;;;;;;6184601;23;20091;-72
2023/02/08 09:18:40;;;;;;;48.63;31.10;;;-0.20;99.90;;;;;;6186621;23;20015;-72
2023/02/08 09:21:17;;;;;;;54.97;33.25;;;-0.20;99.90;;;;;;6184711;23;20020;-72
2023/02/08 09:23:44;;;;;;;53.95;33.28;;;-0.10;99.90;;;;;;6184728;23;20020;-72
2023/02/08 09:26:11;;;;;;;54.38;36.33;;;0.00;99.90;;;;;;6183816;23;20016;-72
2023/02/08 09:28:37;;;;;;;62.65;39.10;;;0.00;99.90;;;;;;6185872;23;20064;-71
2023/02/08 09:31:21;;;;;;;111.43;61.78;;;0.20;99.90;;;;;;6184208;23;20303;-70
2023/02/08 09:33:47;;;;;;;67.68;41.35;;;0.30;99.90;;;;;;6184579;23;20068;-72
2023/02/08 09:36:14;;;;;;;60.20;36.55;;;0.30;99.90;;;;;;6186354;23;20009;-74
2023/02/08 09:38:41;;;;;;;70.00;43.60;;;0.40;99.90;;;;;;6184582;23;20044;-72
2023/02/08 09:41:06;;;;;;;96.53;60.90;;;0.40;99.90;;;;;;6186285;23;20005;-71
2023/02/08 09:43:40;;;;;;;53.38;35.72;;;0.50;99.90;;;;;;6186211;23;20098;-71
2023/02/08 09:46:21;;;;;;;46.85;31.42;;;0.60;99.90;;;;;;6186243;23;20013;-71
2023/02/08 09:48:51;;;;;;;46.35;29.70;;;0.70;99.90;;;;;;6185927;23;20316;-71
2023/02/08 09:51:42;;;;;;;41.20;27.30;;;0.90;99.90;;;;;;6186301;23;20362;-71
2023/02/08 09:54:46;;;;;;;41.33;28.75;;;0.90;99.90;;;;;;6186358;23;20275;-71
2023/02/08 09:57:24;;;;;;;38.92;27.25;;;1.10;99.90;;;;;;6179972;23;20040;-71
2023/02/08 10:00:20;;;;;;;41.30;26.30;;;1.30;99.90;;;;;;6184483;23;20013;-71
2023/02/08 10:02:47;;;;;;;40.70;27.90;;;1.40;99.90;;;;;;6183620;23;20009;-71
2023/02/08 10:05:17;;;;;;;41.40;27.73;;;1.50;99.90;;;;;;6184178;23;20387;-71
2023/02/08 10:07:43;;;;;;;;;;;1.70;99.90;;;;;;6185378;23;20009;-71
2023/02/08 10:10:18;;;;;;;43.10;26.38;;;1.80;99.90;;;;;;6184381;23;19982;-71
2023/02/08 10:12:51;;;;;;;37.58;25.25;;;1.90;99.90;;;;;;6184488;23;20017;-71
2023/02/08 10:15:32;;;;;;;41.38;26.40;;;2.00;99.90;;;;;;6186972;23;20032;-71
2023/02/08 10:18:17;;;;;;;37.05;25.85;;;2.10;99.90;;;;;;6188090;23;20013;-71
2023/02/08 10:21:23;;;;;;;40.10;26.48;;;2.30;99.90;;;;;;6186136;23;20021;-71
2023/02/08 10:24:31;;;;;;;41.17;27.50;;;2.40;99.90;;;;;;6188081;23;20020;-71
2023/02/08 10:27:16;;;;;;;36.20;25.23;;;2.40;99.90;;;;;;6185884;23;20385;-71
2023/02/08 10:30:16;;;;;;;36.88;24.52;;;2.40;99.90;;;;;;6186487;23;20079;-71
2023/02/08 10:33:01;;;;;;;36.78;24.50;;;2.50;99.90;;;;;;6186102;23;20024;-71
2023/02/08 10:35:36;;;;;;;36.65;25.50;;;2.50;99.90;;;;;;6187369;23;20049;-71
2023/02/08 10:38:23;;;;;;;35.22;23.67;;;2.70;99.90;;;;;;6187992;23;20013;-71
2023/02/08 10:40:58;;;;;;;35.55;24.58;;;2.70;99.90;;;;;;6187530;23;20020;-71
2023/02/08 10:43:36;;;;;;;34.05;25.17;;;2.90;99.90;;;;;;6187797;23;20009;-71
2023/02/08 10:46:23;;;;;;;41.35;26.92;;;3.00;99.90;;;;;;6187302;23;20151;-71
2023/02/08 10:49:13;;;;;;;37.25;24.45;;;3.10;99.90;;;;;;6185785;23;20466;-74
2023/02/08 10:51:38;;;;;;;34.92;23.75;;;3.20;99.90;;;;;;6187853;23;20466;-72
2023/02/08 10:54:04;;;;;;;33.33;23.77;;;3.30;99.90;;;;;;6187277;23;20013;-72
2023/02/08 10:56:57;;;;;;;32.15;23.10;;;3.40;99.90;;;;;;6185775;23;20017;-71
2023/02/08 10:59:28;;;;;;;48.55;33.22;;;3.50;99.90;;;;;;6187647;23;20013;-72
2023/02/08 11:01:55;;;;;;;49.03;33.40;;;3.60;99.90;;;;;;6185707;23;20017;-72
2023/02/08 11:04:21;;;;;;;36.45;26.35;;;3.60;99.90;;;;;;6185600;23;20021;-72
2023/02/08 11:06:48;;;;;;;44.30;30.65;;;3.60;99.90;;;;;;6186047;23;20371;-71
2023/02/08 11:09:29;;;;;;;41.42;28.60;;;3.70;99.90;;;;;;6187541;23;20013;-72
2023/02/08 11:11:59;;;;;;;38.10;25.45;;;3.70;99.90;;;;;;6185686;23;20017;-72
2023/02/08 11:14:38;;;;;;;35.87;26.30;;;3.70;99.90;;;;;;6187020;23;20024;-74
2023/02/08 11:17:07;;;;;;;35.13;25.63;;;3.80;99.90;;;;;;6160810;23;20044;-71
2023/02/08 11:19:45;;;;;;;34.08;23.88;;;3.90;99.90;;;;;;6185622;23;20240;-71
2023/02/08 11:22:16;;;;;;;31.65;23.92;;;4.00;99.90;;;;;;6187526;23;20013;-70
2023/02/08 11:24:49;;;;;;;45.70;34.60;;;4.10;99.90;;;;;;6185599;23;20021;-71
2023/02/08 11:27:28;;;;;;;33.42;24.67;;;4.10;99.90;;;;;;6160358;23;20063;-70
2023/02/08 11:30:12;;;;;;;29.92;21.30;;;4.20;99.90;;;;;;6185594;23;20043;-71
2023/02/08 11:32:39;;;;;;;31.08;23.33;;;4.50;99.90;;;;;;6186888;23;20049;-72
2023/02/08 11:35:19;;;;;;;30.80;23.17;;;4.60;99.90;;;;;;6185513;23;20024;-71
2023/02/08 11:37:45;;;;;;;;;;;4.70;99.90;;;;;;6185904;23;20339;-72
2023/02/08 11:40:43;;;;;;;29.27;22.00;;;4.80;99.90;;;;;;6185633;23;19927;-70
2023/02/08 11:43:22;;;;;;;29.95;21.73;;;5.00;99.90;;;;;;6181409;23;20009;-71
2023/02/08 11:45:48;;;;;;;28.58;21.42;;;5.20;99.90;;;;;;6185448;23;20024;-70
2023/02/08 11:48:35;;;;;;;28.88;20.60;;;5.40;99.90;;;;;;6187453;23;20016;-73
2023/02/08 11:51:02;;;;;;;26.30;19.13;;;5.50;99.90;;;;;;6185368;23;20064;-73
2023/02/08 11:53:38;;;;;;;23.98;18.02;;;5.60;99.90;;;;;;6185513;23;20005;-73
2023/02/08 11:56:16;;;;;;;27.40;20.92;;;5.70;99.90;;;;;;6185284;23;20025;-74
2023/02/08 11:58:55;;;;;;;26.40;20.45;;;5.80;99.90;;;;;;6160324;23;20092;-74
2023/02/08 12:01:21;;;;;;;24.23;18.40;;;6.00;99.90;;;;;;6160408;23;20016;-73
2023/02/08 12:03:49;;;;;;;24.30;19.15;;;6.20;99.90;;;;;;6185141;23;20013;-74
2023/02/08 12:06:43;;;;;;;25.13;18.88;;;6.30;99.90;;;;;;6185057;23;20020;-74
2023/02/08 12:09:36;;;;;;;21.92;16.15;;;6.50;99.90;;;;;;6187132;23;20016;-74
2023/02/08 12:12:39;;;;;;;18.52;14.65;;;6.60;99.90;;;;;;6187051;23;20098;-73
2023/02/08 12:15:19;;;;;;;21.10;14.25;;;6.80;99.90;;;;;;6160091;23;20099;-73
2023/02/08 12:18:06;;;;;;;16.10;12.50;;;6.90;99.90;;;;;;6185172;23;20017;-74
2023/02/08 12:20:38;;;;;;;17.40;13.02;;;7.10;99.90;;;;;;6185018;23;20017;-73
2023/02/08 12:23:22;;;;;;;13.80;11.07;;;7.20;99.90;;;;;;6186418;23;20016;-73
2023/02/08 12:26:06;;;;;;;17.48;12.90;;;7.40;99.90;;;;;;6184993;23;20013;-74
2023/02/08 12:29:07;;;;;;;18.52;14.82;;;7.50;99.90;;;;;;6186350;23;20078;-74
2023/02/08 12:31:54;;;;;;;14.48;11.02;;;7.50;99.90;;;;;;6186569;23;20060;-73
2023/02/08 12:34:41;;;;;;;12.48;9.02;;;7.60;99.90;;;;;;6186823;23;20023;-74
2023/02/08 12:43:36;;;;;;;10.07;7.03;;;8.00;96.00;;;;;;6184699;23;20021;-74
2023/02/08 12:46:11;;;;;;;10.35;7.63;;;8.20;93.30;;;;;;6185503;23;20335;-67
2023/02/08 12:48:49;;;;;;;9.88;7.47;;;8.30;92.60;;;;;;6186652;23;20013;-73
2023/02/08 12:51:39;;;;;;;9.30;6.75;;;8.40;92.20;;;;;;6186594;23;20013;-73
2023/02/08 12:54:25;;;;;;;11.35;8.05;;;8.30;92.00;;;;;;6186773;23;20015;-73
2023/02/08 12:56:53;;;;;;;9.20;7.35;;;8.20;91.70;;;;;;6184656;23;20024;-73
2023/02/08 12:59:25;;;;;;;10.07;7.35;;;8.00;92.90;;;;;;6184728;23;20024;-73
2023/02/08 13:01:58;;;;;;;9.98;7.20;;;7.90;91.00;;;;;;6159818;23;20028;-73